createdAt,value
2023-01-01T00:01:55.493Z,18.10
2023-01-01T00:04:23.196Z,18.00
2023-01-01T00:06:52.325Z,18.10
2023-01-01T00:09:37.559Z,18.10
2023-01-01T00:12:06.019Z,18.00
2023-01-01T00:14:33.807Z,17.70
2023-01-01T00:17:01.800Z,17.60
2023-01-01T00:19:29.538Z,17.70
2023-01-01T00:22:02.082Z,17.80
2023-01-01T00:24:33.309Z,17.70
2023-01-01T00:27:01.128Z,17.70
2023-01-01T00:29:29.012Z,17.80
2023-01-01T00:31:56.809Z,17.80
2023-01-01T00:34:24.630Z,17.80
2023-01-01T00:36:52.402Z,17.80
2023-01-01T00:39:21.430Z,17.90
2023-01-01T00:41:49.211Z,18.00
2023-01-01T00:44:16.929Z,17.80
2023-01-01T00:46:44.712Z,17.70
2023-01-01T00:49:12.482Z,17.80
2023-01-01T00:51:40.221Z,17.90
2023-01-01T00:54:08.015Z,17.80
2023-01-01T00:56:37.178Z,17.90
2023-01-01T00:59:04.957Z,18.00
2023-01-01T01:01:34.536Z,17.90
2023-01-01T01:04:03.546Z,17.90
2023-01-01T01:06:31.284Z,17.90
2023-01-01T01:08:59.228Z,17.90
2023-01-01T01:11:27.540Z,17.90
2023-01-01T01:13:58.876Z,18.00
2023-01-01T01:16:29.239Z,18.00
2023-01-01T01:18:59.870Z,17.90
2023-01-01T01:21:30.090Z,18.00
2023-01-01T01:23:58.902Z,18.10
2023-01-01T01:26:28.747Z,18.00
2023-01-01T01:28:58.217Z,17.90
2023-01-01T01:31:29.272Z,18.00
2023-01-01T01:33:57.465Z,18.10
2023-01-01T01:36:32.842Z,17.90
2023-01-01T01:39:00.523Z,18.00
2023-01-01T01:41:29.839Z,17.80
2023-01-01T01:44:01.353Z,17.80
2023-01-01T01:46:33.777Z,17.70
2023-01-01T01:49:05.955Z,17.80
2023-01-01T01:51:37.736Z,17.90
2023-01-01T01:54:09.386Z,17.90
2023-01-01T01:56:44.475Z,17.80
2023-01-01T01:59:14.282Z,17.80
2023-01-01T02:01:42.405Z,17.70
2023-01-01T02:04:10.369Z,17.90
2023-01-01T02:06:40.574Z,17.90
2023-01-01T02:09:10.177Z,17.80
2023-01-01T02:11:38.337Z,18.00
2023-01-01T02:14:06.827Z,17.80
2023-01-01T02:16:40.570Z,17.80
2023-01-01T02:19:18.114Z,17.60
2023-01-01T02:21:57.589Z,17.80
2023-01-01T02:24:43.421Z,17.80
2023-01-01T02:27:16.462Z,17.90
2023-01-01T02:29:48.409Z,17.90
2023-01-01T02:32:21.180Z,17.80
2023-01-01T02:34:54.416Z,17.80
2023-01-01T02:37:23.545Z,17.90
2023-01-01T02:39:55.764Z,17.90
2023-01-01T02:42:28.888Z,17.60
2023-01-01T02:45:00.151Z,17.50
2023-01-01T02:47:27.957Z,17.50
2023-01-01T02:50:00.967Z,17.70
2023-01-01T02:52:46.822Z,17.70
2023-01-01T02:55:24.983Z,17.90
2023-01-01T02:57:57.973Z,18.00
2023-01-01T03:00:27.831Z,17.60
2023-01-01T03:03:17.167Z,17.60
2023-01-01T03:06:11.376Z,17.60
2023-01-01T03:08:50.171Z,17.60
2023-01-01T03:11:20.602Z,17.50
2023-01-01T03:13:54.482Z,17.50
2023-01-01T03:16:30.341Z,17.50
2023-01-01T03:19:12.973Z,17.70
2023-01-01T03:21:44.535Z,17.60
2023-01-01T03:24:21.111Z,17.60
2023-01-01T03:26:52.490Z,17.60
2023-01-01T03:29:21.740Z,17.50
2023-01-01T03:31:53.739Z,17.40
2023-01-01T03:34:26.935Z,17.60
2023-01-01T03:36:58.253Z,17.50
2023-01-01T03:39:30.388Z,17.50
2023-01-01T03:42:07.378Z,17.60
2023-01-01T03:44:39.126Z,17.30
2023-01-01T03:47:08.593Z,17.30
2023-01-01T03:49:36.805Z,17.40
2023-01-01T03:52:21.865Z,17.40
2023-01-01T03:54:58.741Z,17.60
2023-01-01T03:57:33.998Z,17.70
2023-01-01T04:00:07.996Z,17.60
2023-01-01T04:02:41.260Z,17.40
2023-01-01T04:05:11.137Z,17.50
2023-01-01T04:07:39.879Z,17.60
2023-01-01T04:10:17.980Z,17.50
2023-01-01T04:12:47.734Z,17.50
2023-01-01T04:15:15.794Z,17.40
2023-01-01T04:17:44.881Z,17.30
2023-01-01T04:20:13.868Z,17.40
2023-01-01T04:22:41.958Z,17.60
2023-01-01T04:25:11.009Z,17.70
2023-01-01T04:27:39.341Z,17.80
2023-01-01T04:30:09.495Z,17.80
2023-01-01T04:32:37.250Z,17.80
2023-01-01T04:35:08.129Z,17.70
2023-01-01T04:37:36.888Z,17.60
2023-01-01T04:40:05.214Z,17.40
2023-01-01T04:42:33.390Z,17.50
2023-01-01T04:45:01.129Z,17.40
2023-01-01T04:47:28.896Z,17.50
2023-01-01T04:49:56.590Z,17.50
2023-01-01T04:52:25.687Z,17.20
2023-01-01T04:54:53.379Z,17.30
2023-01-01T04:57:21.117Z,17.30
2023-01-01T04:59:48.855Z,17.50
2023-01-01T05:02:16.691Z,17.50
2023-01-01T05:04:44.528Z,17.60
2023-01-01T05:07:12.350Z,17.40
2023-01-01T05:09:41.424Z,17.40
2023-01-01T05:12:09.199Z,17.40
2023-01-01T05:14:36.933Z,17.50
2023-01-01T05:17:05.028Z,17.60
2023-01-01T05:19:32.730Z,17.40
2023-01-01T05:22:05.337Z,17.50
2023-01-01T05:24:37.360Z,17.30
2023-01-01T05:27:06.513Z,17.30
2023-01-01T05:29:34.281Z,17.30
2023-01-01T05:32:02.101Z,17.20
2023-01-01T05:36:59.634Z,17.40
2023-01-01T05:39:27.395Z,17.40
2023-01-01T05:41:55.185Z,17.60
2023-01-01T05:44:24.296Z,17.50
2023-01-01T05:46:52.082Z,17.50
2023-01-01T05:49:19.845Z,17.30
2023-01-01T05:51:47.584Z,17.20
2023-01-01T05:56:41.969Z,17.20
2023-01-01T05:59:11.185Z,17.20
2023-01-01T06:01:45.448Z,17.30
2023-01-01T06:04:14.436Z,17.40
2023-01-01T06:06:42.604Z,17.30
2023-01-01T06:09:12.451Z,17.30
2023-01-01T06:11:40.179Z,17.30
2023-01-01T06:14:07.901Z,17.30
2023-01-01T06:16:36.037Z,17.30
2023-01-01T06:19:05.279Z,17.20
2023-01-01T06:21:33.000Z,17.20
2023-01-01T06:24:01.441Z,17.20
2023-01-01T06:26:30.859Z,17.10
2023-01-01T06:28:59.043Z,17.30
2023-01-01T06:31:27.435Z,17.10
2023-01-01T06:33:55.877Z,16.90
2023-01-01T06:36:26.573Z,17.00
2023-01-01T06:38:56.748Z,17.20
2023-01-01T06:41:26.726Z,17.30
2023-01-01T06:43:56.091Z,17.20
2023-01-01T06:46:25.741Z,17.20
2023-01-01T06:48:56.295Z,17.10
2023-01-01T06:51:28.039Z,17.00
2023-01-01T06:53:58.564Z,17.10
2023-01-01T06:56:26.822Z,17.20
2023-01-01T06:58:54.749Z,17.30
2023-01-01T07:01:24.413Z,17.30
2023-01-01T07:03:54.026Z,17.30
2023-01-01T07:06:21.982Z,17.20
2023-01-01T07:08:51.088Z,17.20
2023-01-01T07:11:18.927Z,17.30
2023-01-01T07:13:46.905Z,17.20
2023-01-01T07:16:15.159Z,17.10
2023-01-01T07:18:43.098Z,17.00
2023-01-01T07:21:29.921Z,16.80
2023-01-01T07:24:00.560Z,16.80
2023-01-01T07:26:29.979Z,16.80
2023-01-01T07:29:05.961Z,16.90
2023-01-01T07:31:34.569Z,16.90
2023-01-01T07:34:02.436Z,17.10
2023-01-01T07:36:30.174Z,17.00
2023-01-01T07:38:59.294Z,16.90
2023-01-01T07:41:27.057Z,16.80
2023-01-01T07:43:54.766Z,16.90
2023-01-01T07:46:22.569Z,16.90
2023-01-01T07:48:50.355Z,16.80
2023-01-01T07:51:18.103Z,16.80
2023-01-01T07:53:45.836Z,17.00
2023-01-01T07:56:15.500Z,16.90
2023-01-01T07:58:43.493Z,16.90
2023-01-01T08:01:12.449Z,16.90
2023-01-01T08:03:40.413Z,16.70
2023-01-01T08:06:10.182Z,16.70
2023-01-01T08:08:38.008Z,16.80
2023-01-01T08:11:06.135Z,17.00
2023-01-01T08:13:35.366Z,17.10
2023-01-01T08:16:03.125Z,17.00
2023-01-01T08:18:30.912Z,17.00
2023-01-01T08:20:58.625Z,16.80
2023-01-01T08:23:26.371Z,16.60
2023-01-01T08:25:54.091Z,16.50
2023-01-01T08:28:21.848Z,16.70
2023-01-01T08:30:51.435Z,16.70
2023-01-01T08:33:19.142Z,16.80
2023-01-01T08:35:53.638Z,17.00
2023-01-01T08:38:21.994Z,16.90
2023-01-01T08:40:49.743Z,16.90
2023-01-01T08:43:17.514Z,16.80
2023-01-01T08:45:45.501Z,16.70
2023-01-01T08:48:14.588Z,16.70
2023-01-01T08:50:42.355Z,16.80
2023-01-01T08:53:10.134Z,17.00
2023-01-01T08:55:37.814Z,17.10
2023-01-01T08:58:07.366Z,16.90
2023-01-01T09:00:35.105Z,16.60
2023-01-01T09:03:02.996Z,16.70
2023-01-01T09:05:32.235Z,16.90
2023-01-01T09:07:59.974Z,17.00
2023-01-01T09:10:27.701Z,17.00
2023-01-01T09:12:55.402Z,16.90
2023-01-01T09:15:23.251Z,17.00
2023-01-01T09:17:50.981Z,17.10
2023-01-01T09:20:18.732Z,16.90
2023-01-01T09:22:47.857Z,17.10
2023-01-01T09:25:15.785Z,17.10
2023-01-01T09:27:43.563Z,17.00
2023-01-01T09:30:12.352Z,17.10
2023-01-01T09:32:40.297Z,17.20
2023-01-01T09:35:08.642Z,17.40
2023-01-01T09:37:36.521Z,17.40
2023-01-01T09:40:06.223Z,17.50
2023-01-01T09:42:40.702Z,17.50
2023-01-01T09:45:22.494Z,17.50
2023-01-01T09:47:53.420Z,17.40
2023-01-01T09:50:24.556Z,17.30
2023-01-01T09:52:56.374Z,17.40
2023-01-01T09:55:29.045Z,17.40
2023-01-01T09:57:57.974Z,17.30
2023-01-01T10:00:26.179Z,17.10
2023-01-01T10:03:07.248Z,17.00
2023-01-01T10:05:44.243Z,17.10
2023-01-01T10:08:28.565Z,17.20
2023-01-01T10:11:06.771Z,17.20
2023-01-01T10:13:38.950Z,17.00
2023-01-01T10:16:13.279Z,17.20
2023-01-01T10:18:42.868Z,17.20
2023-01-01T10:21:16.121Z,17.20
2023-01-01T10:23:48.239Z,17.20
2023-01-01T10:26:21.497Z,17.50
2023-01-01T10:28:57.367Z,17.40
2023-01-01T10:31:32.208Z,17.30
2023-01-01T10:34:00.043Z,17.50
2023-01-01T10:36:28.217Z,17.30
2023-01-01T10:38:56.801Z,17.00
2023-01-01T10:41:26.161Z,17.10
2023-01-01T10:43:53.987Z,17.20
2023-01-01T10:46:31.519Z,17.20
2023-01-01T10:49:12.092Z,17.50
2023-01-01T10:51:44.679Z,17.50
2023-01-01T10:54:31.910Z,17.30
2023-01-01T10:57:13.352Z,17.30
2023-01-01T10:59:45.604Z,17.30
2023-01-01T11:02:21.827Z,17.30
2023-01-01T11:04:50.906Z,17.20
2023-01-01T11:07:24.737Z,17.40
2023-01-01T11:10:03.025Z,17.30
2023-01-01T11:15:35.782Z,17.20
2023-01-01T11:18:06.326Z,17.30
2023-01-01T11:20:34.858Z,17.50
2023-01-01T11:23:19.713Z,17.70
2023-01-01T11:26:06.239Z,17.40
2023-01-01T11:28:36.724Z,17.30
2023-01-01T11:31:15.054Z,17.20
2023-01-01T11:33:47.530Z,17.40
2023-01-01T11:36:23.186Z,17.50
2023-01-01T11:38:55.364Z,17.50
2023-01-01T11:41:23.122Z,17.40
2023-01-01T11:43:52.316Z,17.20
2023-01-01T11:46:24.642Z,17.30
2023-01-01T11:48:54.990Z,17.20
2023-01-01T11:51:31.784Z,17.20
2023-01-01T11:54:12.090Z,17.10
2023-01-01T11:56:40.686Z,17.30
2023-01-01T11:59:17.218Z,17.10
2023-01-01T12:01:48.688Z,17.10
2023-01-01T12:04:20.854Z,17.10
2023-01-01T12:06:53.373Z,17.10
2023-01-01T12:09:27.644Z,17.30
2023-01-01T12:12:05.186Z,17.40
2023-01-01T12:14:41.241Z,17.30
2023-01-01T12:17:17.575Z,17.10
2023-01-01T12:19:51.705Z,17.10
2023-01-01T12:22:20.498Z,17.20
2023-01-01T12:24:49.361Z,17.20
2023-01-01T12:27:21.121Z,17.30
2023-01-01T12:30:05.241Z,17.10
2023-01-01T12:32:46.428Z,17.00
2023-01-01T12:35:27.303Z,17.30
2023-01-01T12:38:05.806Z,17.00
2023-01-01T12:40:40.845Z,17.00
2023-01-01T12:43:11.973Z,17.10
2023-01-01T12:45:56.196Z,16.90
2023-01-01T12:49:01.505Z,16.90
2023-01-01T12:51:37.490Z,16.70
2023-01-01T12:54:26.769Z,16.70
2023-01-01T12:57:02.322Z,16.90
2023-01-01T12:59:34.404Z,16.80
2023-01-01T13:02:11.410Z,16.80
2023-01-01T13:04:39.652Z,16.70
2023-01-01T13:07:10.559Z,16.70
2023-01-01T13:09:41.512Z,16.80
2023-01-01T13:12:13.729Z,17.00
2023-01-01T13:14:42.679Z,17.10
2023-01-01T13:17:21.103Z,17.30
2023-01-01T13:19:50.056Z,17.30
2023-01-01T13:22:42.023Z,17.20
2023-01-01T13:25:27.604Z,17.20
2023-01-01T13:28:11.488Z,17.10
2023-01-01T13:30:52.882Z,17.20
2023-01-01T13:33:29.367Z,17.20
2023-01-01T13:36:31.611Z,16.90
2023-01-01T13:39:00.125Z,17.20
2023-01-01T13:41:40.853Z,17.40
2023-01-01T13:44:23.950Z,17.30
2023-01-01T13:47:14.967Z,17.10
2023-01-01T13:50:04.683Z,17.10
2023-01-01T13:52:57.105Z,17.30
2023-01-01T13:56:02.395Z,17.40
2023-01-01T13:59:07.789Z,17.30
2023-01-01T14:01:45.946Z,17.10
2023-01-01T14:04:27.257Z,17.20
2023-01-01T14:07:18.687Z,17.30
2023-01-01T14:09:49.447Z,17.30
2023-01-01T14:12:18.487Z,17.20
2023-01-01T14:14:46.284Z,17.30
2023-01-01T14:17:16.050Z,17.40
2023-01-01T14:19:44.750Z,17.30
2023-01-01T14:22:17.603Z,17.50
2023-01-01T14:24:47.971Z,17.60
2023-01-01T14:27:22.349Z,17.40
2023-01-01T14:29:52.355Z,17.50
2023-01-01T14:32:24.515Z,17.50
2023-01-01T14:35:00.910Z,17.40
2023-01-01T14:37:30.084Z,17.30
2023-01-01T14:40:17.203Z,17.30
2023-01-01T14:42:46.693Z,17.30
2023-01-01T14:45:17.030Z,17.20
2023-01-01T14:47:49.053Z,17.00
2023-01-01T14:50:22.740Z,17.00
2023-01-01T14:52:56.826Z,17.10
2023-01-01T14:55:35.688Z,17.10
2023-01-01T14:58:03.848Z,17.00
2023-01-01T15:00:33.854Z,17.10
2023-01-01T15:03:13.640Z,17.20
2023-01-01T15:05:43.698Z,17.20
2023-01-01T15:08:22.111Z,17.20
2023-01-01T15:10:51.069Z,17.30
2023-01-01T15:13:20.573Z,17.30
2023-01-01T15:15:50.603Z,17.20
2023-01-01T15:18:41.986Z,17.00
2023-01-01T15:21:18.487Z,17.00
2023-01-01T15:23:54.046Z,16.80
2023-01-01T15:26:30.395Z,16.80
2023-01-01T15:29:10.970Z,17.00
2023-01-01T15:31:41.528Z,16.90
2023-01-01T15:34:21.937Z,17.00
2023-01-01T15:36:50.697Z,16.80
2023-01-01T15:39:19.819Z,16.90
2023-01-01T15:41:50.264Z,16.90
2023-01-01T15:44:22.355Z,16.90
2023-01-01T15:46:52.721Z,16.90
2023-01-01T15:49:25.433Z,16.80
2023-01-01T15:51:55.534Z,16.70
2023-01-01T15:54:29.344Z,16.70
2023-01-01T15:56:59.493Z,16.60
2023-01-01T15:59:30.392Z,16.60
2023-01-01T16:02:15.605Z,16.50
2023-01-01T16:04:47.720Z,16.20
2023-01-01T16:07:21.009Z,16.30
2023-01-01T16:09:57.018Z,16.60
2023-01-01T16:12:26.025Z,16.40
2023-01-01T16:14:54.204Z,16.40
2023-01-01T16:17:22.333Z,16.50
2023-01-01T16:19:51.510Z,16.50
2023-01-01T16:22:20.417Z,16.60
2023-01-01T16:24:52.262Z,16.60
2023-01-01T16:27:24.774Z,16.50
2023-01-01T16:29:55.008Z,16.50
2023-01-01T16:32:26.900Z,16.60
2023-01-01T16:34:54.915Z,16.50
2023-01-01T16:37:23.326Z,16.60
2023-01-01T16:39:53.620Z,16.50
2023-01-01T16:42:21.333Z,16.40
2023-01-01T16:44:49.035Z,16.40
2023-01-01T16:47:17.189Z,16.40
2023-01-01T16:49:45.312Z,16.30
2023-01-01T16:52:13.267Z,16.40
2023-01-01T16:54:41.057Z,16.40
2023-01-01T16:57:10.428Z,16.50
2023-01-01T16:59:38.133Z,16.40
2023-01-01T17:02:06.982Z,16.30
2023-01-01T17:04:35.651Z,16.40
2023-01-01T17:07:07.688Z,16.50
2023-01-01T17:09:35.427Z,16.50
2023-01-01T17:12:03.175Z,16.40
2023-01-01T17:14:33.656Z,16.50
2023-01-01T17:17:01.457Z,16.50
2023-01-01T17:19:29.257Z,16.30
2023-01-01T17:21:57.046Z,16.30
2023-01-01T17:24:24.819Z,16.30
2023-01-01T17:26:54.369Z,16.50
2023-01-01T17:29:23.040Z,16.50
2023-01-01T17:31:52.698Z,16.50
2023-01-01T17:34:20.444Z,16.50
2023-01-01T17:36:48.206Z,16.60
2023-01-01T17:39:16.851Z,16.50
2023-01-01T17:41:45.459Z,16.60
2023-01-01T17:44:13.228Z,16.60
2023-01-01T17:46:42.428Z,16.60
2023-01-01T17:49:11.655Z,16.60
2023-01-01T17:51:40.108Z,16.60
2023-01-01T17:54:11.581Z,16.60
2023-01-01T17:56:39.301Z,16.70
2023-01-01T17:59:07.306Z,16.60
2023-01-01T18:01:36.416Z,16.60
2023-01-01T18:04:05.900Z,16.50
2023-01-01T18:06:41.543Z,16.50
2023-01-01T18:09:12.374Z,16.50
2023-01-01T18:11:40.337Z,16.40
2023-01-01T18:14:08.505Z,16.50
2023-01-01T18:16:38.997Z,16.50
2023-01-01T18:19:08.041Z,16.50
2023-01-01T18:21:37.156Z,16.60
2023-01-01T18:24:11.622Z,16.60
2023-01-01T18:26:39.343Z,16.60
2023-01-01T18:29:07.337Z,16.60
2023-01-01T18:31:35.854Z,16.60
2023-01-01T18:34:04.636Z,16.70
2023-01-01T18:36:34.922Z,16.70
2023-01-01T18:39:11.045Z,16.70
2023-01-01T18:42:06.866Z,16.60
2023-01-01T18:44:35.378Z,16.80
2023-01-01T18:47:13.301Z,16.80
2023-01-01T18:49:47.027Z,16.70
2023-01-01T18:52:21.627Z,16.70
2023-01-01T18:54:52.953Z,16.60
2023-01-01T18:57:28.887Z,16.70
2023-01-01T18:59:59.739Z,16.70
2023-01-01T19:02:33.035Z,16.70
2023-01-01T19:05:15.428Z,16.80
2023-01-01T19:07:44.193Z,16.80
2023-01-01T19:10:19.928Z,16.80
2023-01-01T19:12:48.596Z,16.90
2023-01-01T19:15:18.297Z,16.80
2023-01-01T19:17:46.411Z,16.80
2023-01-01T19:20:24.403Z,16.80
2023-01-01T19:22:52.326Z,16.80
2023-01-01T19:25:40.501Z,16.80
2023-01-01T19:28:28.777Z,16.90
2023-01-01T19:30:56.768Z,16.90
2023-01-01T19:33:24.526Z,16.80
2023-01-01T19:35:52.393Z,16.70
2023-01-01T19:38:20.207Z,16.70
2023-01-01T19:40:49.513Z,16.70
2023-01-01T19:43:17.255Z,16.70
2023-01-01T19:45:45.082Z,16.80
2023-01-01T19:48:12.805Z,16.70
2023-01-01T19:50:40.549Z,16.60
2023-01-01T19:53:08.293Z,16.60
2023-01-01T19:55:36.006Z,16.60
2023-01-01T19:58:05.265Z,16.60
2023-01-01T20:00:39.964Z,16.60
2023-01-01T20:03:43.279Z,16.70
2023-01-01T20:05:55.991Z,16.70
2023-01-01T20:08:23.953Z,16.70
2023-01-01T20:10:51.771Z,16.70
2023-01-01T20:13:20.881Z,16.70
2023-01-01T20:15:48.704Z,16.70
2023-01-01T20:18:16.475Z,16.70
2023-01-01T20:21:04.823Z,16.70
2023-01-01T20:23:32.634Z,16.60
2023-01-01T20:26:00.507Z,16.60
2023-01-01T20:28:47.175Z,16.70
2023-01-01T20:31:14.982Z,16.60
2023-01-01T20:33:42.701Z,16.50
2023-01-01T20:36:27.899Z,16.50
2023-01-01T20:38:55.754Z,16.40
2023-01-01T20:41:30.335Z,16.60
2023-01-01T20:44:01.480Z,16.60
2023-01-01T20:46:30.604Z,16.50
2023-01-01T20:48:58.939Z,16.60
2023-01-01T20:51:26.717Z,16.60
2023-01-01T20:53:54.507Z,16.50
2023-01-01T20:56:22.280Z,16.50
2023-01-01T20:58:57.423Z,16.50
2023-01-01T21:01:28.717Z,16.40
2023-01-01T21:03:56.671Z,16.30
2023-01-01T21:06:24.976Z,16.30
2023-01-01T21:08:53.130Z,16.40
2023-01-01T21:11:20.894Z,16.40
2023-01-01T21:13:48.881Z,16.30
2023-01-01T21:16:18.587Z,16.10
2023-01-01T21:18:48.568Z,16.10
2023-01-01T21:21:20.138Z,16.10
2023-01-01T21:23:48.566Z,16.10
2023-01-01T21:26:19.514Z,16.10
2023-01-01T21:28:48.114Z,16.20
2023-01-01T21:31:16.362Z,16.20
2023-01-01T21:33:47.144Z,16.10
2023-01-01T21:36:18.640Z,16.10
2023-01-01T21:38:47.784Z,16.10
2023-01-01T21:41:20.567Z,16.10
2023-01-01T21:43:51.889Z,16.10
2023-01-01T21:46:32.926Z,16.10
2023-01-01T21:49:04.456Z,16.10
2023-01-01T21:51:34.441Z,16.20
2023-01-01T21:54:19.539Z,16.20
2023-01-01T21:56:58.648Z,16.20
2023-01-01T21:59:38.463Z,16.10
2023-01-01T22:02:35.068Z,16.00
2023-01-01T22:05:30.589Z,15.90
2023-01-01T22:08:06.791Z,16.00
2023-01-01T22:10:36.565Z,16.00
2023-01-01T22:13:13.622Z,16.00
2023-01-01T22:15:42.786Z,15.90
2023-01-01T22:18:30.809Z,15.80
2023-01-01T22:21:02.627Z,15.90
2023-01-01T22:23:38.362Z,15.90
2023-01-01T22:26:16.082Z,15.80
2023-01-01T22:28:45.378Z,15.90
2023-01-01T22:31:19.340Z,15.90
2023-01-01T22:33:52.070Z,15.90
2023-01-01T22:36:28.846Z,15.80
2023-01-01T22:39:03.061Z,15.80
2023-01-01T22:41:31.056Z,15.80
2023-01-01T22:44:03.788Z,15.80
2023-01-01T22:46:36.633Z,15.60
2023-01-01T22:49:15.709Z,15.50
2023-01-01T22:51:47.260Z,15.50
2023-01-01T22:54:14.969Z,15.60
2023-01-01T22:56:42.670Z,15.60
2023-01-01T22:59:10.401Z,15.60
2023-01-01T23:01:38.272Z,15.60
2023-01-01T23:04:06.061Z,15.30
2023-01-01T23:06:36.228Z,15.30
2023-01-01T23:09:08.362Z,15.20
2023-01-01T23:11:36.164Z,15.00
2023-01-01T23:14:21.422Z,15.00
2023-01-01T23:16:49.212Z,15.20
2023-01-01T23:19:16.961Z,15.40
2023-01-01T23:21:45.037Z,15.30
2023-01-01T23:24:18.308Z,15.50
2023-01-01T23:26:47.879Z,15.50
2023-01-01T23:29:16.753Z,15.50
2023-01-01T23:31:45.213Z,15.60
2023-01-01T23:34:13.508Z,15.40
2023-01-01T23:36:42.745Z,15.50
2023-01-01T23:39:10.643Z,15.40
2023-01-01T23:41:39.704Z,15.40
2023-01-01T23:44:07.616Z,15.50
2023-01-01T23:46:37.736Z,15.50
2023-01-01T23:49:06.364Z,15.50
2023-01-01T23:51:34.755Z,15.50
2023-01-01T23:54:02.567Z,15.50
2023-01-01T23:56:30.272Z,15.50
2023-01-01T23:59:02.944Z,15.50
